Airfield :
LOGIN :

Register | Disclaimer

   EN    FR    IT 

 










Legend :    VFR   Marginal VFR   IFR   Intensive IFR   Very Intensive IFR
Visi :
Ceiling :
>= 8 km
>= 3000ft
5 to 8 km
1000 to 3000 ft
1500m to 5 km
500 to 1000 ft
800 to 1500m
200 to 500 ft
< 800m
< 200 ft
Symbols :   Thunderstorms  Fog  Heavy snow  Heavy precipitations  Wind > 20 kt
SIGMETs :     Misc.  Thunderstorms  Icing  Turbulence  Mountain Waves  Volcanic Ashes






- Airport Elevation : 412 ft
- IATA code : ORE


LFOJ - Orleans

CURRENT METAR :
  • 220200Z AUTO 23004KT 4400 1600 BR VV/// 13/12 Q1010

EXPIRED METARs :
  • 220130Z AUTO 22003KT CAVOK 13/12 Q1010
  • 220100Z AUTO 25001KT 6000 2300 NSC 13/12 Q1010
  • 220030Z AUTO 00000KT 9999 FEW045 13/13 Q1010
  • 220000Z AUTO 28004KT CAVOK 14/13 Q1010
  • 212330Z AUTO VRB03KT 9999 FEW005 SCT010 BKN015 14/14 Q1010
  • 212300Z AUTO VRB02KT 9999 BKN004 BKN035 BKN150 15/14 Q1010

TAF TAF LFOJ
Valid from the 21 at 21:00 until the 22 at 21:00 UTC


212000Z 2121/2221 VRB02KT CAVOK TX21/2215Z TN14/2204Z
PROB40
TEMPO 2201/2207 3000 BR BKN003
TEMPO 2211/2215 23012G25KT 4000 -SHRA SCT025TCU



MET'MAP, your aeronautical weather chart ! - Copyright ORBIFLY December 2007 - Disclaimer

ORBIFLY MET'MAP TEAM :

Programming & Development : Alexandra Zaïnal
Concept & original design : Baudouin d'Aumeries
Assistance for programming : Marc-Olivier Méhu
Technical & hardware support : Manuel Goepfert

Contact : metmap@orbifly.com




SOURCES & CREDITS :

   NOAA